createdAt,value
2018-09-15T00:00:33.460Z,25.67
2018-09-15T00:03:01.412Z,22.13
2018-09-15T00:05:29.309Z,25.47
2018-09-15T00:07:57.225Z,27.03
2018-09-15T00:10:25.178Z,25.17
2018-09-15T00:12:53.211Z,26.50
2018-09-15T00:15:21.303Z,24.43
2018-09-15T00:17:49.871Z,25.30
2018-09-15T00:20:17.766Z,27.33
2018-09-15T00:22:45.690Z,25.27
2018-09-15T00:25:13.639Z,22.07
2018-09-15T00:27:41.582Z,25.77
2018-09-15T00:30:09.494Z,30.10
2018-09-15T00:32:37.508Z,26.43
2018-09-15T00:35:05.482Z,24.17
2018-09-15T00:37:33.416Z,30.20
2018-09-15T00:40:01.354Z,24.17
2018-09-15T00:42:29.317Z,26.63
2018-09-15T00:44:57.201Z,30.27
2018-09-15T00:47:25.137Z,24.27
2018-09-15T00:49:53.136Z,25.50
2018-09-15T00:52:21.089Z,28.97
2018-09-15T00:54:49.100Z,27.97
2018-09-15T00:57:17.061Z,27.17
2018-09-15T00:59:44.989Z,28.03
2018-09-15T01:02:12.947Z,29.87
2018-09-15T01:04:40.873Z,27.30
2018-09-15T01:07:08.765Z,30.67
2018-09-15T01:09:36.693Z,25.77
2018-09-15T01:12:04.624Z,26.63
2018-09-15T01:14:32.619Z,28.97
2018-09-15T01:17:00.596Z,25.43
2018-09-15T01:19:28.509Z,28.53
2018-09-15T01:21:56.453Z,26.83
2018-09-15T01:24:24.412Z,26.20
2018-09-15T01:26:52.365Z,25.90
2018-09-15T01:29:20.235Z,27.57
2018-09-15T01:31:48.202Z,34.73
2018-09-15T01:34:16.201Z,20.20
2018-09-15T01:36:44.103Z,22.47
2018-09-15T01:39:12.080Z,25.23
2018-09-15T01:41:40.028Z,28.17
2018-09-15T01:44:07.946Z,26.77
2018-09-15T01:46:35.905Z,24.53
2018-09-15T01:49:03.903Z,27.37
2018-09-15T01:51:31.832Z,26.43
2018-09-15T01:53:59.766Z,27.13
2018-09-15T01:56:27.682Z,26.27
2018-09-15T01:58:55.542Z,28.83
2018-09-15T02:01:23.490Z,26.80
2018-09-15T02:03:51.409Z,25.33
2018-09-15T02:06:19.363Z,29.67
2018-09-15T02:08:47.259Z,29.53
2018-09-15T02:11:15.227Z,27.07
2018-09-15T02:13:43.125Z,23.63
2018-09-15T02:16:11.147Z,28.33
2018-09-15T02:18:39.129Z,25.77
2018-09-15T02:21:07.078Z,25.30
2018-09-15T02:23:35.025Z,23.27
2018-09-15T02:26:02.901Z,20.07
2018-09-15T02:28:30.852Z,23.10
2018-09-15T02:30:58.776Z,25.90
2018-09-15T02:33:26.688Z,29.20
2018-09-15T02:35:54.682Z,29.07
2018-09-15T02:38:22.586Z,31.63
2018-09-15T02:40:50.497Z,27.60
2018-09-15T02:43:18.366Z,29.63
2018-09-15T02:45:46.346Z,29.40
2018-09-15T02:48:14.220Z,28.83
2018-09-15T02:50:42.554Z,29.40
2018-09-15T02:53:10.480Z,31.60
2018-09-15T02:55:38.410Z,26.87
2018-09-15T02:58:06.470Z,33.23
2018-09-15T03:00:34.397Z,28.87
2018-09-15T03:03:02.346Z,29.53
2018-09-15T03:05:30.280Z,27.43
2018-09-15T03:07:58.238Z,23.17
2018-09-15T03:10:26.147Z,31.90
2018-09-15T03:12:54.051Z,31.10
2018-09-15T03:15:22.028Z,25.30
2018-09-15T03:17:49.933Z,26.40
2018-09-15T03:20:17.845Z,26.00
2018-09-15T03:22:45.842Z,23.80
2018-09-15T03:25:13.836Z,26.60
2018-09-15T03:27:41.742Z,30.23
2018-09-15T03:30:09.662Z,29.13
2018-09-15T03:32:37.565Z,30.03
2018-09-15T03:35:05.705Z,28.50
2018-09-15T03:37:33.633Z,25.43
2018-09-15T03:40:01.632Z,24.83
2018-09-15T03:42:29.566Z,18.67
2018-09-15T03:44:57.534Z,18.13
2018-09-15T03:47:25.424Z,24.83
2018-09-15T03:49:53.350Z,21.53
2018-09-15T03:52:21.332Z,25.97
2018-09-15T03:54:49.260Z,35.60
2018-09-15T03:57:17.205Z,28.40
2018-09-15T03:59:45.158Z,26.20
2018-09-15T04:02:13.087Z,32.53
2018-09-15T04:04:41.063Z,29.10
2018-09-15T04:07:08.958Z,31.93
2018-09-15T04:09:36.908Z,29.47
2018-09-15T04:12:04.848Z,30.13
2018-09-15T04:14:32.745Z,30.70
2018-09-15T04:17:00.681Z,29.07
2018-09-15T04:19:28.601Z,34.23
2018-09-15T04:21:56.508Z,29.43
2018-09-15T04:24:24.443Z,27.27
2018-09-15T04:26:52.551Z,34.07
2018-09-15T04:29:20.445Z,45.27
2018-09-15T04:31:48.372Z,33.87
2018-09-15T04:34:16.314Z,32.10
2018-09-15T04:36:44.254Z,28.60
2018-09-15T04:39:12.720Z,32.43
2018-09-15T04:41:41.214Z,35.63
2018-09-15T04:44:09.097Z,28.67
2018-09-15T04:46:36.977Z,31.80
2018-09-15T04:49:05.312Z,29.07
2018-09-15T04:51:33.254Z,37.83
2018-09-15T04:54:01.144Z,28.13
2018-09-15T04:56:29.130Z,27.27
2018-09-15T04:58:57.407Z,32.53
2018-09-15T05:01:25.426Z,24.83
2018-09-15T05:03:53.428Z,26.20
2018-09-15T05:06:21.537Z,21.53
2018-09-15T05:08:49.477Z,19.63
2018-09-15T05:11:17.399Z,29.80
2018-09-15T05:13:45.319Z,32.03
2018-09-15T05:16:13.212Z,31.87
2018-09-15T05:18:41.100Z,30.17
2018-09-15T05:21:09.003Z,32.93
2018-09-15T05:23:36.858Z,35.73
2018-09-15T05:26:04.812Z,38.10
2018-09-15T05:28:32.765Z,31.60
2018-09-15T05:31:00.661Z,42.27
2018-09-15T05:33:28.649Z,33.83
2018-09-15T05:35:56.594Z,32.60
2018-09-15T05:38:24.544Z,30.37
2018-09-15T05:40:52.477Z,30.97
2018-09-15T05:43:20.398Z,30.70
2018-09-15T05:45:48.313Z,32.23
2018-09-15T05:48:16.184Z,32.80
2018-09-15T05:50:44.138Z,27.30
2018-09-15T05:53:12.016Z,32.80
2018-09-15T05:55:39.912Z,26.87
2018-09-15T05:58:07.810Z,24.37
2018-09-15T06:00:35.787Z,34.50
2018-09-15T06:03:05.299Z,29.73
2018-09-15T06:05:33.253Z,32.43
2018-09-15T06:08:01.197Z,23.03
2018-09-15T06:10:29.077Z,29.70
2018-09-15T06:12:56.965Z,39.23
2018-09-15T06:15:24.981Z,19.30
2018-09-15T06:17:53.625Z,23.40
2018-09-15T06:20:21.570Z,28.50
2018-09-15T06:22:49.501Z,24.93
2018-09-15T06:25:17.819Z,29.50
2018-09-15T06:27:45.735Z,29.27
2018-09-15T06:30:13.643Z,25.30
2018-09-15T06:32:41.568Z,28.27
2018-09-15T06:35:10.088Z,23.20
2018-09-15T06:37:38.025Z,19.13
2018-09-15T06:40:06.102Z,24.57
2018-09-15T06:42:34.053Z,26.57
2018-09-15T06:45:03.834Z,24.93
2018-09-15T06:47:32.186Z,29.00
2018-09-15T06:50:00.184Z,27.17
2018-09-15T06:52:28.108Z,29.40
2018-09-15T06:54:56.034Z,23.67
2018-09-15T06:57:23.954Z,24.97
2018-09-15T06:59:52.108Z,29.17
2018-09-15T07:02:20.948Z,30.90
2018-09-15T07:04:48.867Z,28.27
2018-09-15T07:07:16.856Z,30.50
2018-09-15T07:09:44.808Z,27.77
2018-09-15T07:12:12.741Z,24.70
2018-09-15T07:14:40.629Z,32.67
2018-09-15T07:17:08.540Z,26.30
2018-09-15T07:19:36.482Z,26.27
2018-09-15T07:22:04.437Z,26.30
2018-09-15T07:24:38.984Z,23.30
2018-09-15T07:27:06.982Z,26.83
2018-09-15T07:29:34.868Z,22.20
2018-09-15T07:32:02.878Z,27.30
2018-09-15T07:34:31.060Z,25.33
2018-09-15T07:36:59.053Z,27.13
2018-09-15T07:39:27.134Z,23.07
2018-09-15T07:41:55.054Z,25.80
2018-09-15T07:44:23.024Z,26.27
2018-09-15T07:46:51.789Z,26.00
2018-09-15T07:49:19.789Z,25.60
2018-09-15T07:51:47.859Z,27.53
2018-09-15T07:54:15.889Z,22.80
2018-09-15T07:56:44.576Z,28.53
2018-09-15T07:59:12.653Z,27.20
2018-09-15T08:01:41.001Z,29.63
2018-09-15T08:04:09.938Z,31.90
2018-09-15T08:06:37.980Z,28.37
2018-09-15T08:09:06.733Z,29.93
2018-09-15T08:11:38.832Z,30.33
2018-09-15T08:14:07.881Z,29.63
2018-09-15T08:16:36.665Z,29.30
2018-09-15T08:19:05.013Z,33.23
2018-09-15T08:21:33.143Z,33.33
2018-09-15T08:24:01.186Z,30.13
2018-09-15T08:26:29.186Z,32.20
2018-09-15T08:28:58.068Z,28.73
2018-09-15T08:31:26.181Z,34.53
2018-09-15T08:33:54.359Z,31.90
2018-09-15T08:36:22.373Z,34.80
2018-09-15T08:38:50.429Z,37.30
2018-09-15T08:41:18.466Z,39.20
2018-09-15T08:43:46.777Z,39.20
2018-09-15T08:46:14.744Z,40.03
2018-09-15T08:48:42.673Z,37.03
2018-09-15T08:51:10.589Z,42.97
2018-09-15T08:53:38.492Z,43.27
2018-09-15T08:56:06.488Z,44.73
2018-09-15T08:58:34.454Z,41.30
2018-09-15T09:01:02.364Z,38.83
2018-09-15T09:03:30.606Z,39.90
2018-09-15T09:05:58.651Z,35.53
2018-09-15T09:08:26.650Z,41.97
2018-09-15T09:10:54.598Z,38.33
2018-09-15T09:13:22.549Z,39.23
2018-09-15T09:15:50.765Z,43.30
2018-09-15T09:18:19.756Z,39.47
2018-09-15T09:20:47.841Z,43.80
2018-09-15T09:23:15.877Z,42.13
2018-09-15T09:25:43.881Z,38.50
2018-09-15T09:28:11.740Z,35.10
2018-09-15T09:30:39.939Z,37.63
2018-09-15T09:33:08.165Z,36.33
2018-09-15T09:35:36.379Z,40.90
2018-09-15T09:38:04.412Z,43.57
2018-09-15T09:40:32.369Z,46.93
2018-09-15T09:43:00.569Z,43.03
2018-09-15T09:45:28.544Z,41.77
2018-09-15T09:47:56.561Z,45.40
2018-09-15T09:50:24.546Z,40.63
2018-09-15T09:52:52.432Z,37.07
2018-09-15T09:55:20.338Z,41.80
2018-09-15T09:57:48.260Z,40.30
2018-09-15T10:00:21.643Z,40.03
2018-09-15T10:02:49.553Z,34.57
2018-09-15T10:05:17.505Z,36.07
2018-09-15T10:07:45.368Z,35.40
2018-09-15T10:10:13.331Z,37.00
2018-09-15T10:12:41.510Z,29.87
2018-09-15T10:15:09.515Z,30.60
2018-09-15T10:17:37.401Z,31.30
2018-09-15T10:20:05.360Z,28.60
2018-09-15T10:22:34.543Z,26.70
2018-09-15T10:25:02.481Z,28.83
2018-09-15T10:27:30.435Z,32.80
2018-09-15T10:29:58.374Z,28.50
2018-09-15T10:32:26.313Z,27.70
2018-09-15T10:34:54.665Z,25.20
2018-09-15T10:37:22.741Z,27.80
2018-09-15T10:39:50.821Z,24.40
2018-09-15T10:42:18.813Z,27.17
2018-09-15T10:44:46.798Z,23.70
2018-09-15T10:47:14.747Z,24.17
2018-09-15T10:49:42.901Z,25.37
2018-09-15T10:52:11.060Z,25.63
2018-09-15T10:54:39.839Z,24.47
2018-09-15T10:57:08.741Z,20.50
2018-09-15T10:59:37.626Z,23.10
2018-09-15T11:09:11.035Z,17.00
2018-09-15T11:11:39.122Z,20.20
2018-09-15T11:14:07.145Z,20.70
2018-09-15T11:16:37.452Z,22.10
2018-09-15T11:19:06.361Z,18.83
2018-09-15T11:21:34.481Z,18.60
2018-09-15T11:24:03.360Z,21.20
2018-09-15T11:26:31.533Z,22.60
2018-09-15T11:29:01.639Z,21.30
2018-09-15T11:31:30.310Z,20.40
2018-09-15T11:33:58.411Z,15.47
2018-09-15T11:36:26.405Z,18.83
2018-09-15T11:38:54.433Z,19.13
2018-09-15T11:41:22.477Z,19.50
2018-09-15T11:43:51.204Z,20.80
2018-09-15T11:46:19.187Z,19.17
2018-09-15T11:48:47.150Z,19.33
2018-09-15T11:51:15.886Z,18.30
2018-09-15T11:53:44.509Z,16.47
2018-09-15T11:56:12.525Z,16.87
2018-09-15T11:58:40.977Z,25.60
2018-09-15T12:01:09.090Z,14.37
2018-09-15T12:03:37.191Z,16.67
2018-09-15T12:06:05.110Z,12.03
2018-09-15T12:08:33.048Z,12.60
2018-09-15T12:11:00.990Z,13.03
2018-09-15T12:13:28.908Z,12.80
2018-09-15T12:15:56.821Z,11.00
2018-09-15T12:20:59.542Z,9.93
2018-09-15T12:23:27.440Z,9.33
2018-09-15T12:25:55.361Z,9.53
2018-09-15T12:28:23.364Z,9.73
2018-09-15T12:30:51.317Z,9.50
2018-09-15T12:33:19.317Z,9.80
2018-09-15T12:35:47.197Z,8.70
2018-09-15T12:38:15.089Z,8.90
2018-09-15T12:40:42.977Z,7.57
2018-09-15T12:43:11.058Z,7.27
2018-09-15T12:45:39.065Z,6.90
2018-09-15T12:48:07.010Z,7.13
2018-09-15T12:50:34.914Z,6.97
2018-09-15T12:53:02.820Z,6.90
2018-09-15T12:55:30.687Z,6.80
2018-09-15T12:57:58.637Z,6.73
2018-09-15T13:00:26.562Z,7.07
2018-09-15T13:02:54.469Z,7.20
2018-09-15T13:05:22.446Z,7.10
2018-09-15T13:07:50.365Z,7.67
2018-09-15T13:10:18.282Z,6.87
2018-09-15T13:12:46.739Z,6.90
2018-09-15T13:15:14.654Z,6.90
2018-09-15T13:17:42.526Z,8.30
2018-09-15T13:20:10.514Z,6.40
2018-09-15T13:22:38.535Z,7.03
2018-09-15T13:25:06.564Z,8.23
2018-09-15T13:27:34.623Z,6.80
2018-09-15T13:30:02.663Z,7.93
2018-09-15T13:32:30.626Z,7.00
2018-09-15T13:34:58.757Z,6.63
2018-09-15T13:37:26.758Z,7.77
2018-09-15T13:39:54.759Z,7.37
2018-09-15T13:42:22.746Z,5.87
2018-09-15T13:44:50.698Z,6.40
2018-09-15T13:47:18.712Z,5.30
2018-09-15T13:49:46.606Z,5.80
2018-09-15T13:52:14.574Z,7.10
2018-09-15T13:54:42.505Z,7.80
2018-09-15T13:57:10.466Z,6.40
2018-09-15T13:59:38.546Z,6.80
2018-09-15T14:02:06.534Z,7.50
2018-09-15T14:04:34.498Z,5.83
2018-09-15T14:07:02.449Z,7.07
2018-09-15T14:09:30.374Z,6.83
2018-09-15T14:11:58.314Z,6.93
2018-09-15T14:14:26.333Z,6.13
2018-09-15T14:16:54.368Z,6.10
2018-09-15T14:19:22.230Z,6.23
2018-09-15T14:21:50.214Z,6.63
2018-09-15T14:24:18.112Z,6.93
2018-09-15T14:26:46.071Z,6.80
2018-09-15T14:29:14.027Z,6.80
2018-09-15T14:31:41.957Z,6.30
2018-09-15T14:34:09.861Z,6.67
2018-09-15T14:36:37.848Z,6.40
2018-09-15T14:39:07.967Z,6.90
2018-09-15T14:41:35.926Z,5.97
2018-09-15T14:44:03.889Z,6.90
2018-09-15T14:46:31.872Z,6.40
2018-09-15T14:48:59.783Z,8.10
2018-09-15T14:51:27.688Z,6.47
2018-09-15T14:53:55.626Z,10.30
2018-09-15T14:56:23.687Z,7.13
2018-09-15T14:58:51.566Z,7.43
2018-09-15T15:01:19.516Z,6.80
2018-09-15T15:03:47.490Z,6.10
2018-09-15T15:06:15.413Z,6.57
2018-09-15T15:08:43.374Z,6.70
2018-09-15T15:11:11.386Z,6.63
2018-09-15T15:13:39.384Z,5.97
2018-09-15T15:16:07.601Z,5.80
2018-09-15T15:18:35.608Z,6.23
2018-09-15T15:21:04.345Z,5.90
2018-09-15T15:23:32.290Z,6.30
2018-09-15T15:26:00.256Z,6.27
2018-09-15T15:28:28.179Z,6.13
2018-09-15T15:30:56.146Z,5.47
2018-09-15T15:33:24.163Z,6.13
2018-09-15T15:35:52.042Z,5.77
2018-09-15T15:38:20.062Z,5.63
2018-09-15T15:40:47.994Z,5.77
2018-09-15T15:43:15.983Z,5.80
2018-09-15T15:45:43.922Z,5.27
2018-09-15T15:48:11.874Z,5.80
2018-09-15T15:50:39.791Z,5.33
2018-09-15T15:53:07.941Z,5.33
2018-09-15T15:55:36.014Z,5.00
2018-09-15T15:58:04.105Z,5.37
2018-09-15T16:00:32.158Z,5.87
2018-09-15T16:03:00.126Z,5.90
2018-09-15T16:05:28.070Z,5.03
2018-09-15T16:07:56.045Z,5.80
2018-09-15T16:10:23.927Z,5.03
2018-09-15T16:12:51.852Z,5.73
2018-09-15T16:15:20.394Z,5.90
2018-09-15T16:17:48.331Z,9.33
2018-09-15T16:20:16.291Z,6.60
2018-09-15T16:22:44.242Z,5.33
2018-09-15T16:25:12.194Z,4.97
2018-09-15T16:27:40.137Z,5.43
2018-09-15T16:30:08.096Z,5.50
2018-09-15T16:32:36.053Z,5.43
2018-09-15T16:35:04.044Z,5.00
2018-09-15T16:37:31.977Z,5.33
2018-09-15T16:39:59.962Z,5.70
2018-09-15T16:42:27.889Z,5.20
2018-09-15T16:44:55.869Z,5.23
2018-09-15T16:47:23.861Z,5.80
2018-09-15T16:49:51.845Z,6.07
2018-09-15T16:52:19.861Z,5.87
2018-09-15T16:54:47.774Z,4.87
2018-09-15T16:57:15.775Z,5.10
2018-09-15T16:59:44.221Z,6.13
2018-09-15T17:02:12.230Z,4.90
2018-09-15T17:04:40.221Z,5.03
2018-09-15T17:07:08.161Z,5.63
2018-09-15T17:09:36.186Z,5.10
2018-09-15T17:12:04.309Z,5.27
2018-09-15T17:14:32.433Z,5.20
2018-09-15T17:17:00.527Z,6.57
2018-09-15T17:19:28.483Z,5.90
2018-09-15T17:21:56.449Z,6.27
2018-09-15T17:24:24.490Z,5.63
2018-09-15T17:26:52.478Z,6.10
2018-09-15T17:29:20.462Z,6.40
2018-09-15T17:31:48.617Z,5.90
2018-09-15T17:34:16.674Z,5.80
2018-09-15T17:36:44.683Z,6.23
2018-09-15T17:39:12.744Z,5.83
2018-09-15T17:41:40.778Z,5.87
2018-09-15T17:44:08.737Z,5.60
2018-09-15T17:46:36.788Z,6.10
2018-09-15T17:49:04.875Z,6.30
2018-09-15T17:51:32.982Z,5.63
2018-09-15T17:54:01.026Z,6.97
2018-09-15T17:56:29.053Z,7.00
2018-09-15T17:58:57.169Z,9.93
2018-09-15T18:01:25.318Z,6.83
2018-09-15T18:03:53.262Z,7.27
2018-09-15T18:06:21.405Z,6.87
2018-09-15T18:08:49.606Z,7.17
2018-09-15T18:11:17.710Z,6.33
2018-09-15T18:13:46.950Z,6.03
2018-09-15T18:16:14.991Z,6.30
2018-09-15T18:18:43.992Z,7.27
2018-09-15T18:21:12.033Z,10.80
2018-09-15T18:23:40.174Z,10.33
2018-09-15T18:26:08.225Z,9.80
2018-09-15T18:28:36.245Z,8.60
2018-09-15T18:31:04.756Z,8.00
2018-09-15T18:33:32.850Z,8.40
2018-09-15T18:36:00.864Z,9.90
2018-09-15T18:38:28.985Z,8.20
2018-09-15T18:40:56.953Z,9.03
2018-09-15T18:43:25.089Z,10.03
2018-09-15T18:45:53.065Z,9.03
2018-09-15T18:48:21.085Z,9.23
2018-09-15T18:50:49.122Z,11.37
2018-09-15T18:53:18.057Z,9.77
2018-09-15T18:55:46.124Z,9.93
2018-09-15T18:58:14.128Z,9.97
2018-09-15T19:00:42.152Z,8.60
2018-09-15T19:03:14.420Z,6.90
2018-09-15T19:05:42.876Z,7.30
2018-09-15T19:08:10.905Z,7.17
2018-09-15T19:10:39.057Z,8.77
2018-09-15T19:13:07.094Z,8.80
2018-09-15T19:15:35.125Z,7.33
2018-09-15T19:18:03.177Z,7.67
2018-09-15T19:20:31.221Z,8.90
2018-09-15T19:22:59.392Z,7.87
2018-09-15T19:25:27.525Z,8.53
2018-09-15T19:27:55.473Z,7.43
2018-09-15T19:30:23.462Z,7.20
2018-09-15T19:32:51.564Z,10.23
2018-09-15T19:35:19.621Z,9.20
2018-09-15T19:37:48.046Z,9.63
2018-09-15T19:40:16.074Z,9.20
2018-09-15T19:42:44.092Z,9.70
2018-09-15T19:45:12.057Z,11.03
2018-09-15T19:47:40.022Z,8.70
2018-09-15T19:50:08.088Z,9.00
2018-09-15T19:52:36.314Z,10.10
2018-09-15T19:55:05.011Z,10.17
2018-09-15T19:57:34.173Z,10.93
2018-09-15T20:00:04.747Z,10.50
2018-09-15T20:02:33.137Z,11.30
2018-09-15T20:05:05.258Z,10.33
2018-09-15T20:07:33.586Z,10.07
2018-09-15T20:10:01.891Z,11.60
2018-09-15T20:12:29.970Z,10.17
2018-09-15T20:14:57.852Z,12.50
2018-09-15T20:17:25.048Z,11.03
2018-09-15T20:19:55.601Z,14.17
2018-09-15T20:22:24.118Z,11.67
2018-09-15T20:24:52.248Z,13.00
2018-09-15T20:27:21.234Z,12.70
2018-09-15T20:29:49.336Z,13.53
2018-09-15T20:32:17.383Z,13.10
2018-09-15T20:34:45.327Z,10.73
2018-09-15T20:37:13.423Z,15.30
2018-09-15T20:39:41.503Z,13.80
2018-09-15T20:42:09.577Z,13.97
2018-09-15T20:44:38.507Z,11.60
2018-09-15T20:47:07.251Z,14.07
2018-09-15T20:49:35.362Z,14.10
2018-09-15T20:52:03.424Z,12.73
2018-09-15T20:54:31.750Z,13.10
2018-09-15T20:57:00.916Z,13.20
2018-09-15T20:59:28.921Z,12.30
2018-09-15T21:01:56.944Z,12.37
2018-09-15T21:04:25.374Z,13.77
2018-09-15T21:06:53.806Z,11.93
2018-09-15T21:09:21.855Z,12.03
2018-09-15T21:11:49.887Z,13.57
2018-09-15T21:14:17.928Z,15.20
2018-09-15T21:16:45.929Z,15.30
2018-09-15T21:19:14.091Z,15.53
2018-09-15T21:21:42.442Z,13.77
2018-09-15T21:24:11.320Z,14.40
2018-09-15T21:26:39.408Z,15.43
2018-09-15T21:29:07.403Z,11.40
2018-09-15T21:31:36.393Z,12.80
2018-09-15T21:34:04.775Z,15.10
2018-09-15T21:36:32.790Z,21.23
2018-09-15T21:39:01.496Z,14.50
2018-09-15T21:41:29.506Z,18.00
2018-09-15T21:43:57.547Z,16.17
2018-09-15T21:46:25.525Z,34.97
2018-09-15T21:48:53.490Z,25.43
2018-09-15T21:51:21.501Z,20.07
2018-09-15T21:53:50.082Z,30.27
2018-09-15T21:56:18.119Z,27.80
2018-09-15T21:58:46.040Z,17.00
2018-09-15T22:01:14.029Z,17.80
2018-09-15T22:03:47.574Z,17.13
2018-09-15T22:06:15.538Z,16.57
2018-09-15T22:08:43.599Z,15.70
2018-09-15T22:11:12.341Z,18.23
2018-09-15T22:13:40.503Z,14.87
2018-09-15T22:16:08.517Z,15.40
2018-09-15T22:18:36.468Z,14.93
2018-09-15T22:21:05.533Z,15.20
2018-09-15T22:23:33.512Z,15.67
2018-09-15T22:26:01.608Z,16.00
2018-09-15T22:28:29.637Z,13.80
2018-09-15T22:30:57.598Z,14.97
2018-09-15T22:33:25.584Z,14.80
2018-09-15T22:35:53.517Z,13.73
2018-09-15T22:38:21.535Z,13.10
2018-09-15T22:40:50.520Z,16.17
2018-09-15T22:43:18.558Z,16.53
2018-09-15T22:45:46.577Z,13.32
2018-09-15T22:48:14.620Z,13.00
2018-09-15T22:50:42.708Z,12.80
2018-09-15T22:53:10.781Z,12.67
2018-09-15T22:55:38.813Z,14.10
2018-09-15T22:58:06.744Z,15.37
2018-09-15T23:00:34.783Z,12.60
2018-09-15T23:03:02.780Z,12.07
2018-09-15T23:05:31.449Z,12.70
2018-09-15T23:07:59.440Z,12.60
2018-09-15T23:10:27.472Z,14.15
2018-09-15T23:12:56.239Z,16.53
2018-09-15T23:15:24.353Z,12.65
2018-09-15T23:17:52.421Z,13.50
2018-09-15T23:20:21.038Z,13.35
2018-09-15T23:22:49.264Z,14.23
2018-09-15T23:25:17.265Z,14.78
2018-09-15T23:27:45.279Z,18.75
2018-09-15T23:30:13.241Z,14.75
2018-09-15T23:32:41.257Z,15.85
2018-09-15T23:35:09.268Z,15.45
2018-09-15T23:37:37.326Z,14.95
2018-09-15T23:40:05.310Z,15.45
2018-09-15T23:42:33.272Z,15.90
2018-09-15T23:45:01.250Z,15.40
2018-09-15T23:47:29.301Z,15.90
2018-09-15T23:49:58.158Z,14.23
2018-09-15T23:52:26.101Z,14.43
2018-09-15T23:54:54.130Z,15.03
2018-09-15T23:57:22.099Z,16.05
2018-09-15T23:59:50.039Z,14.87
